sensor_id;sensor_type;location;lat;lon;timestamp;temperature;humidity
43338;DHT22;28933;52.492;13.434;2023-04-25T00:00:41;11.90;90.40
43338;DHT22;28933;52.492;13.434;2023-04-25T00:03:07;11.90;90.40
43338;DHT22;28933;52.492;13.434;2023-04-25T00:05:34;11.80;90.30
43338;DHT22;28933;52.492;13.434;2023-04-25T00:08:03;11.80;90.30
43338;DHT22;28933;52.492;13.434;2023-04-25T00:10:28;11.70;90.30
43338;DHT22;28933;52.492;13.434;2023-04-25T00:12:54;11.70;90.30
43338;DHT22;28933;52.492;13.434;2023-04-25T00:15:19;11.70;90.30
43338;DHT22;28933;52.492;13.434;2023-04-25T00:17:45;11.70;90.30
43338;DHT22;28933;52.492;13.434;2023-04-25T00:20:11;11.70;90.20
43338;DHT22;28933;52.492;13.434;2023-04-25T00:22:37;11.70;90.30
43338;DHT22;28933;52.492;13.434;2023-04-25T00:25:06;11.60;90.30
43338;DHT22;28933;52.492;13.434;2023-04-25T00:27:32;11.60;90.00
43338;DHT22;28933;52.492;13.434;2023-04-25T00:29:58;11.60;90.10
43338;DHT22;28933;52.492;13.434;2023-04-25T00:32:23;11.60;90.10
43338;DHT22;28933;52.492;13.434;2023-04-25T00:34:49;11.60;90.10
43338;DHT22;28933;52.492;13.434;2023-04-25T00:37:15;11.50;90.10
43338;DHT22;28933;52.492;13.434;2023-04-25T00:39:41;11.50;90.00
43338;DHT22;28933;52.492;13.434;2023-04-25T00:42:07;11.60;90.00
43338;DHT22;28933;52.492;13.434;2023-04-25T00:44:34;11.50;90.10
43338;DHT22;28933;52.492;13.434;2023-04-25T00:47:02;11.50;90.20
43338;DHT22;28933;52.492;13.434;2023-04-25T00:49:27;11.60;90.10
43338;DHT22;28933;52.492;13.434;2023-04-25T00:51:53;11.60;90.10
43338;DHT22;28933;52.492;13.434;2023-04-25T00:54:19;11.60;90.10
43338;DHT22;28933;52.492;13.434;2023-04-25T00:56:44;11.60;90.10
43338;DHT22;28933;52.492;13.434;2023-04-25T00:59:10;11.60;90.10
43338;DHT22;28933;52.492;13.434;2023-04-25T01:01:36;11.60;90.10
43338;DHT22;28933;52.492;13.434;2023-04-25T02:11:47;11.60;90.10
43338;DHT22;28933;52.492;13.434;2023-04-25T02:14:13;11.60;90.00
43338;DHT22;28933;52.492;13.434;2023-04-25T02:16:38;11.60;90.10
43338;DHT22;28933;52.492;13.434;2023-04-25T02:19:05;11.60;90.00
43338;DHT22;28933;52.492;13.434;2023-04-25T02:21:31;11.60;90.10
43338;DHT22;28933;52.492;13.434;2023-04-25T02:23:57;11.60;90.10
43338;DHT22;28933;52.492;13.434;2023-04-25T02:26:22;11.60;90.10
43338;DHT22;28933;52.492;13.434;2023-04-25T02:28:49;11.60;90.20
43338;DHT22;28933;52.492;13.434;2023-04-25T02:31:15;11.60;90.20
43338;DHT22;28933;52.492;13.434;2023-04-25T02:33:41;11.70;90.20
43338;DHT22;28933;52.492;13.434;2023-04-25T02:36:07;11.70;90.20
43338;DHT22;28933;52.492;13.434;2023-04-25T02:38:33;11.70;90.10
43338;DHT22;28933;52.492;13.434;2023-04-25T02:40:58;11.70;90.10
43338;DHT22;28933;52.492;13.434;2023-04-25T02:43:24;11.70;90.20
43338;DHT22;28933;52.492;13.434;2023-04-25T02:45:49;11.60;90.10
43338;DHT22;28933;52.492;13.434;2023-04-25T02:48:15;11.60;90.20
43338;DHT22;28933;52.492;13.434;2023-04-25T02:50:41;11.60;90.20
43338;DHT22;28933;52.492;13.434;2023-04-25T02:53:06;11.70;90.20
43338;DHT22;28933;52.492;13.434;2023-04-25T02:55:32;11.60;90.30
43338;DHT22;28933;52.492;13.434;2023-04-25T02:57:58;11.60;90.10
43338;DHT22;28933;52.492;13.434;2023-04-25T03:00:24;11.60;90.20
43338;DHT22;28933;52.492;13.434;2023-04-25T03:02:50;11.60;90.10
43338;DHT22;28933;52.492;13.434;2023-04-25T03:05:16;11.60;90.20
43338;DHT22;28933;52.492;13.434;2023-04-25T03:07:42;11.60;90.20
43338;DHT22;28933;52.492;13.434;2023-04-25T03:10:10;11.60;90.20
43338;DHT22;28933;52.492;13.434;2023-04-25T03:12:36;11.60;90.20
43338;DHT22;28933;52.492;13.434;2023-04-25T03:15:02;11.60;90.20
43338;DHT22;28933;52.492;13.434;2023-04-25T03:17:28;11.60;90.20
43338;DHT22;28933;52.492;13.434;2023-04-25T03:19:54;11.60;90.20
43338;DHT22;28933;52.492;13.434;2023-04-25T03:22:19;11.60;90.20
43338;DHT22;28933;52.492;13.434;2023-04-25T03:24:45;11.60;90.20
43338;DHT22;28933;52.492;13.434;2023-04-25T03:27:10;11.60;90.30
43338;DHT22;28933;52.492;13.434;2023-04-25T03:29:36;11.60;90.20
43338;DHT22;28933;52.492;13.434;2023-04-25T03:32:02;11.60;90.20
43338;DHT22;28933;52.492;13.434;2023-04-25T03:34:27;11.50;90.20
43338;DHT22;28933;52.492;13.434;2023-04-25T03:36:53;11.50;90.20
43338;DHT22;28933;52.492;13.434;2023-04-25T03:39:19;11.50;90.20
43338;DHT22;28933;52.492;13.434;2023-04-25T03:41:44;11.60;90.30
43338;DHT22;28933;52.492;13.434;2023-04-25T03:44:10;11.50;90.20
43338;DHT22;28933;52.492;13.434;2023-04-25T03:46:35;11.50;90.20
43338;DHT22;28933;52.492;13.434;2023-04-25T03:49:01;11.60;90.40
43338;DHT22;28933;52.492;13.434;2023-04-25T03:51:27;11.60;90.30
43338;DHT22;28933;52.492;13.434;2023-04-25T03:53:52;11.60;90.30
43338;DHT22;28933;52.492;13.434;2023-04-25T03:56:18;11.50;90.30
43338;DHT22;28933;52.492;13.434;2023-04-25T03:58:44;11.50;90.30
43338;DHT22;28933;52.492;13.434;2023-04-25T04:01:10;11.50;90.30
43338;DHT22;28933;52.492;13.434;2023-04-25T04:03:36;11.50;90.30
43338;DHT22;28933;52.492;13.434;2023-04-25T04:06:03;11.50;90.40
43338;DHT22;28933;52.492;13.434;2023-04-25T04:08:29;11.50;90.40
43338;DHT22;28933;52.492;13.434;2023-04-25T04:10:57;11.50;90.40
43338;DHT22;28933;52.492;13.434;2023-04-25T04:13:23;11.50;90.50
43338;DHT22;28933;52.492;13.434;2023-04-25T04:15:49;11.50;90.50
43338;DHT22;28933;52.492;13.434;2023-04-25T04:18:14;11.50;90.70
43338;DHT22;28933;52.492;13.434;2023-04-25T04:20:40;11.50;90.50
43338;DHT22;28933;52.492;13.434;2023-04-25T04:23:06;11.50;90.50
43338;DHT22;28933;52.492;13.434;2023-04-25T04:25:31;11.60;90.60
43338;DHT22;28933;52.492;13.434;2023-04-25T04:27:57;11.60;90.60
43338;DHT22;28933;52.492;13.434;2023-04-25T04:30:24;11.60;90.50
43338;DHT22;28933;52.492;13.434;2023-04-25T04:32:51;11.60;90.70
43338;DHT22;28933;52.492;13.434;2023-04-25T04:35:17;11.60;90.50
43338;DHT22;28933;52.492;13.434;2023-04-25T04:37:42;11.60;90.50
43338;DHT22;28933;52.492;13.434;2023-04-25T04:40:09;11.60;90.50
43338;DHT22;28933;52.492;13.434;2023-04-25T04:42:35;11.60;90.50
43338;DHT22;28933;52.492;13.434;2023-04-25T04:45:02;11.60;90.50
43338;DHT22;28933;52.492;13.434;2023-04-25T04:47:28;11.60;90.50
43338;DHT22;28933;52.492;13.434;2023-04-25T04:49:56;11.60;90.50
43338;DHT22;28933;52.492;13.434;2023-04-25T04:52:22;11.60;90.50
43338;DHT22;28933;52.492;13.434;2023-04-25T04:54:48;11.60;90.60
43338;DHT22;28933;52.492;13.434;2023-04-25T04:57:13;11.60;90.60
43338;DHT22;28933;52.492;13.434;2023-04-25T04:59:39;11.60;90.50
43338;DHT22;28933;52.492;13.434;2023-04-25T05:02:05;11.60;90.50
43338;DHT22;28933;52.492;13.434;2023-04-25T05:04:30;11.60;90.50
43338;DHT22;28933;52.492;13.434;2023-04-25T05:06:56;11.60;90.70
43338;DHT22;28933;52.492;13.434;2023-04-25T05:09:22;11.60;90.70
43338;DHT22;28933;52.492;13.434;2023-04-25T05:11:51;11.60;90.60
43338;DHT22;28933;52.492;13.434;2023-04-25T05:14:17;11.60;90.70
43338;DHT22;28933;52.492;13.434;2023-04-25T05:16:43;11.60;90.60
43338;DHT22;28933;52.492;13.434;2023-04-25T05:19:09;11.60;90.60
43338;DHT22;28933;52.492;13.434;2023-04-25T05:21:35;11.60;90.80
43338;DHT22;28933;52.492;13.434;2023-04-25T05:24:01;11.60;90.80
43338;DHT22;28933;52.492;13.434;2023-04-25T05:26:27;11.70;90.90
43338;DHT22;28933;52.492;13.434;2023-04-25T05:28:59;11.70;90.80
43338;DHT22;28933;52.492;13.434;2023-04-25T05:31:25;11.70;90.80
43338;DHT22;28933;52.492;13.434;2023-04-25T05:33:52;11.70;90.80
43338;DHT22;28933;52.492;13.434;2023-04-25T05:36:20;11.70;90.80
43338;DHT22;28933;52.492;13.434;2023-04-25T05:38:46;11.80;90.90
43338;DHT22;28933;52.492;13.434;2023-04-25T05:41:12;11.80;90.80
43338;DHT22;28933;52.492;13.434;2023-04-25T05:43:38;11.80;90.80
43338;DHT22;28933;52.492;13.434;2023-04-25T05:46:03;11.90;90.80
43338;DHT22;28933;52.492;13.434;2023-04-25T05:48:29;11.90;90.70
43338;DHT22;28933;52.492;13.434;2023-04-25T05:50:55;11.90;90.70
43338;DHT22;28933;52.492;13.434;2023-04-25T05:53:21;11.90;90.60
43338;DHT22;28933;52.492;13.434;2023-04-25T05:55:47;11.90;90.70
43338;DHT22;28933;52.492;13.434;2023-04-25T05:58:12;11.90;90.70
43338;DHT22;28933;52.492;13.434;2023-04-25T06:00:38;12.00;90.70
43338;DHT22;28933;52.492;13.434;2023-04-25T06:03:04;12.00;90.70
43338;DHT22;28933;52.492;13.434;2023-04-25T06:05:29;12.00;90.70
43338;DHT22;28933;52.492;13.434;2023-04-25T06:07:55;12.00;90.70
43338;DHT22;28933;52.492;13.434;2023-04-25T06:10:21;12.00;90.80
43338;DHT22;28933;52.492;13.434;2023-04-25T06:12:49;12.00;91.00
43338;DHT22;28933;52.492;13.434;2023-04-25T06:15:14;11.90;90.70
43338;DHT22;28933;52.492;13.434;2023-04-25T06:17:41;12.00;90.80
43338;DHT22;28933;52.492;13.434;2023-04-25T06:20:07;12.00;90.80
43338;DHT22;28933;52.492;13.434;2023-04-25T06:22:33;12.00;90.90
43338;DHT22;28933;52.492;13.434;2023-04-25T06:24:59;12.00;90.90
43338;DHT22;28933;52.492;13.434;2023-04-25T06:27:25;12.00;90.90
43338;DHT22;28933;52.492;13.434;2023-04-25T06:29:51;12.00;90.90
43338;DHT22;28933;52.492;13.434;2023-04-25T06:32:16;12.00;91.00
43338;DHT22;28933;52.492;13.434;2023-04-25T06:34:43;12.00;91.10
43338;DHT22;28933;52.492;13.434;2023-04-25T06:37:09;12.10;91.10
43338;DHT22;28933;52.492;13.434;2023-04-25T06:39:34;12.10;91.10
43338;DHT22;28933;52.492;13.434;2023-04-25T06:42:00;12.10;91.10
43338;DHT22;28933;52.492;13.434;2023-04-25T06:44:26;12.10;91.10
43338;DHT22;28933;52.492;13.434;2023-04-25T06:46:52;12.10;91.30
43338;DHT22;28933;52.492;13.434;2023-04-25T06:49:17;12.10;91.20
43338;DHT22;28933;52.492;13.434;2023-04-25T06:51:43;12.10;91.10
43338;DHT22;28933;52.492;13.434;2023-04-25T06:54:08;12.10;91.10
43338;DHT22;28933;52.492;13.434;2023-04-25T06:56:34;12.10;91.20
43338;DHT22;28933;52.492;13.434;2023-04-25T06:59:00;12.00;91.20
43338;DHT22;28933;52.492;13.434;2023-04-25T07:01:26;12.10;91.20
43338;DHT22;28933;52.492;13.434;2023-04-25T07:03:51;12.10;91.30
43338;DHT22;28933;52.492;13.434;2023-04-25T07:06:17;12.10;91.40
43338;DHT22;28933;52.492;13.434;2023-04-25T07:08:43;12.00;91.40
43338;DHT22;28933;52.492;13.434;2023-04-25T07:11:08;12.00;91.30
43338;DHT22;28933;52.492;13.434;2023-04-25T07:13:34;12.00;91.40
43338;DHT22;28933;52.492;13.434;2023-04-25T07:16:00;12.00;91.60
43338;DHT22;28933;52.492;13.434;2023-04-25T07:18:25;12.00;91.60
43338;DHT22;28933;52.492;13.434;2023-04-25T07:20:51;12.00;91.60
43338;DHT22;28933;52.492;13.434;2023-04-25T07:23:16;12.00;91.50
43338;DHT22;28933;52.492;13.434;2023-04-25T07:25:42;12.00;91.60
43338;DHT22;28933;52.492;13.434;2023-04-25T07:28:08;11.90;91.60
43338;DHT22;28933;52.492;13.434;2023-04-25T07:30:33;11.80;91.60
43338;DHT22;28933;52.492;13.434;2023-04-25T07:33:00;11.80;91.80
43338;DHT22;28933;52.492;13.434;2023-04-25T07:35:26;11.80;91.90
43338;DHT22;28933;52.492;13.434;2023-04-25T07:37:51;11.80;91.90
43338;DHT22;28933;52.492;13.434;2023-04-25T07:40:17;11.80;91.90
43338;DHT22;28933;52.492;13.434;2023-04-25T07:42:43;11.80;91.90
43338;DHT22;28933;52.492;13.434;2023-04-25T07:45:08;11.80;91.90
43338;DHT22;28933;52.492;13.434;2023-04-25T07:47:35;11.90;91.90
43338;DHT22;28933;52.492;13.434;2023-04-25T07:50:01;11.90;91.80
43338;DHT22;28933;52.492;13.434;2023-04-25T07:52:26;11.90;91.70
43338;DHT22;28933;52.492;13.434;2023-04-25T07:54:52;11.90;91.60
43338;DHT22;28933;52.492;13.434;2023-04-25T07:57:19;12.00;91.60
43338;DHT22;28933;52.492;13.434;2023-04-25T07:59:45;12.00;91.40
43338;DHT22;28933;52.492;13.434;2023-04-25T08:02:10;12.00;91.30
43338;DHT22;28933;52.492;13.434;2023-04-25T08:04:36;12.00;91.20
43338;DHT22;28933;52.492;13.434;2023-04-25T08:07:02;12.00;91.10
43338;DHT22;28933;52.492;13.434;2023-04-25T08:09:27;12.00;90.80
43338;DHT22;28933;52.492;13.434;2023-04-25T08:11:54;12.00;90.30
43338;DHT22;28933;52.492;13.434;2023-04-25T08:14:20;11.90;90.30
43338;DHT22;28933;52.492;13.434;2023-04-25T08:16:45;12.00;90.40
43338;DHT22;28933;52.492;13.434;2023-04-25T08:19:11;12.20;90.30
43338;DHT22;28933;52.492;13.434;2023-04-25T08:21:37;12.30;90.10
43338;DHT22;28933;52.492;13.434;2023-04-25T08:24:03;12.40;89.60
43338;DHT22;28933;52.492;13.434;2023-04-25T08:26:29;12.50;89.10
43338;DHT22;28933;52.492;13.434;2023-04-25T08:28:55;12.50;88.20
43338;DHT22;28933;52.492;13.434;2023-04-25T08:31:20;12.50;87.80
43338;DHT22;28933;52.492;13.434;2023-04-25T08:33:46;12.60;88.30
43338;DHT22;28933;52.492;13.434;2023-04-25T08:36:12;12.70;88.30
43338;DHT22;28933;52.492;13.434;2023-04-25T08:38:38;12.80;88.20
43338;DHT22;28933;52.492;13.434;2023-04-25T08:41:04;13.00;87.70
43338;DHT22;28933;52.492;13.434;2023-04-25T08:43:30;13.10;87.20
43338;DHT22;28933;52.492;13.434;2023-04-25T08:46:00;13.20;86.80
43338;DHT22;28933;52.492;13.434;2023-04-25T08:48:32;13.20;85.90
43338;DHT22;28933;52.492;13.434;2023-04-25T08:50:58;13.30;85.30
43338;DHT22;28933;52.492;13.434;2023-04-25T08:53:32;13.30;84.70
43338;DHT22;28933;52.492;13.434;2023-04-25T08:56:00;13.30;83.00
43338;DHT22;28933;52.492;13.434;2023-04-25T08:58:28;13.30;83.00
43338;DHT22;28933;52.492;13.434;2023-04-25T09:00:53;13.30;82.70
43338;DHT22;28933;52.492;13.434;2023-04-25T09:03:19;13.30;82.20
43338;DHT22;28933;52.492;13.434;2023-04-25T09:05:45;13.30;81.40
43338;DHT22;28933;52.492;13.434;2023-04-25T09:08:11;13.20;80.80
43338;DHT22;28933;52.492;13.434;2023-04-25T09:10:37;13.30;80.50
43338;DHT22;28933;52.492;13.434;2023-04-25T09:13:11;13.30;80.40
43338;DHT22;28933;52.492;13.434;2023-04-25T09:15:57;13.30;79.40
43338;DHT22;28933;52.492;13.434;2023-04-25T09:20:50;13.10;75.30
43338;DHT22;28933;52.492;13.434;2023-04-25T09:23:16;13.00;77.10
43338;DHT22;28933;52.492;13.434;2023-04-25T09:25:50;13.00;76.40
43338;DHT22;28933;52.492;13.434;2023-04-25T09:28:17;13.00;77.00
43338;DHT22;28933;52.492;13.434;2023-04-25T09:30:47;12.90;76.60
43338;DHT22;28933;52.492;13.434;2023-04-25T09:33:13;12.90;76.90
43338;DHT22;28933;52.492;13.434;2023-04-25T09:35:40;13.00;76.90
43338;DHT22;28933;52.492;13.434;2023-04-25T09:38:13;13.20;76.80
43338;DHT22;28933;52.492;13.434;2023-04-25T09:40:43;13.30;76.60
43338;DHT22;28933;52.492;13.434;2023-04-25T09:43:20;13.40;76.30
43338;DHT22;28933;52.492;13.434;2023-04-25T09:45:49;13.40;75.60
43338;DHT22;28933;52.492;13.434;2023-04-25T09:48:20;13.50;76.00
43338;DHT22;28933;52.492;13.434;2023-04-25T09:53:29;13.60;74.40
43338;DHT22;28933;52.492;13.434;2023-04-25T09:55:55;13.60;73.60
43338;DHT22;28933;52.492;13.434;2023-04-25T09:58:24;13.60;73.50
43338;DHT22;28933;52.492;13.434;2023-04-25T10:00:51;13.60;72.00
43338;DHT22;28933;52.492;13.434;2023-04-25T10:03:20;13.70;72.10
43338;DHT22;28933;52.492;13.434;2023-04-25T10:05:50;13.60;70.30
43338;DHT22;28933;52.492;13.434;2023-04-25T10:08:17;13.70;71.40
43338;DHT22;28933;52.492;13.434;2023-04-25T10:10:44;13.70;71.20
43338;DHT22;28933;52.492;13.434;2023-04-25T10:13:11;13.80;70.00
43338;DHT22;28933;52.492;13.434;2023-04-25T10:15:40;13.70;70.10
43338;DHT22;28933;52.492;13.434;2023-04-25T10:18:07;13.70;69.30
43338;DHT22;28933;52.492;13.434;2023-04-25T10:20:32;13.80;69.80
43338;DHT22;28933;52.492;13.434;2023-04-25T10:23:06;13.80;70.50
43338;DHT22;28933;52.492;13.434;2023-04-25T10:25:34;14.00;70.40
43338;DHT22;28933;52.492;13.434;2023-04-25T10:28:03;14.20;70.90
43338;DHT22;28933;52.492;13.434;2023-04-25T10:30:29;14.20;68.70
43338;DHT22;28933;52.492;13.434;2023-04-25T10:32:55;14.20;68.50
43338;DHT22;28933;52.492;13.434;2023-04-25T10:35:27;14.20;68.60
43338;DHT22;28933;52.492;13.434;2023-04-25T10:38:13;14.30;68.80
43338;DHT22;28933;52.492;13.434;2023-04-25T10:40:39;14.40;67.80
43338;DHT22;28933;52.492;13.434;2023-04-25T10:43:37;14.50;68.50
43338;DHT22;28933;52.492;13.434;2023-04-25T10:46:23;14.50;68.20
43338;DHT22;28933;52.492;13.434;2023-04-25T10:49:00;14.50;68.10
43338;DHT22;28933;52.492;13.434;2023-04-25T10:51:31;14.60;67.30
43338;DHT22;28933;52.492;13.434;2023-04-25T10:54:02;14.50;67.50
43338;DHT22;28933;52.492;13.434;2023-04-25T10:59:18;14.50;67.70
43338;DHT22;28933;52.492;13.434;2023-04-25T11:01:47;14.50;67.30
43338;DHT22;28933;52.492;13.434;2023-04-25T11:04:32;14.60;68.40
43338;DHT22;28933;52.492;13.434;2023-04-25T11:07:29;14.70;67.60
43338;DHT22;28933;52.492;13.434;2023-04-25T11:09:57;14.60;66.40
43338;DHT22;28933;52.492;13.434;2023-04-25T11:12:25;14.70;67.40
43338;DHT22;28933;52.492;13.434;2023-04-25T11:14:58;14.70;66.60
43338;DHT22;28933;52.492;13.434;2023-04-25T11:17:25;14.70;67.00
43338;DHT22;28933;52.492;13.434;2023-04-25T11:19:50;14.70;66.30
43338;DHT22;28933;52.492;13.434;2023-04-25T11:22:16;14.70;66.50
43338;DHT22;28933;52.492;13.434;2023-04-25T11:24:42;14.60;66.10
43338;DHT22;28933;52.492;13.434;2023-04-25T11:27:08;14.60;66.20
43338;DHT22;28933;52.492;13.434;2023-04-25T11:29:35;14.40;65.40
43338;DHT22;28933;52.492;13.434;2023-04-25T11:32:01;14.20;64.60
43338;DHT22;28933;52.492;13.434;2023-04-25T11:34:28;14.00;65.30
43338;DHT22;28933;52.492;13.434;2023-04-25T11:36:59;13.80;65.30
43338;DHT22;28933;52.492;13.434;2023-04-25T11:39:26;13.70;65.10
43338;DHT22;28933;52.492;13.434;2023-04-25T11:41:52;13.60;65.50
43338;DHT22;28933;52.492;13.434;2023-04-25T11:44:19;13.60;64.80
43338;DHT22;28933;52.492;13.434;2023-04-25T11:46:45;13.50;64.40
43338;DHT22;28933;52.492;13.434;2023-04-25T11:49:12;13.50;64.50
43338;DHT22;28933;52.492;13.434;2023-04-25T11:51:41;13.50;64.10
43338;DHT22;28933;52.492;13.434;2023-04-25T11:54:08;13.60;63.80
43338;DHT22;28933;52.492;13.434;2023-04-25T11:56:34;13.60;63.90
43338;DHT22;28933;52.492;13.434;2023-04-25T11:59:02;13.60;63.10
43338;DHT22;28933;52.492;13.434;2023-04-25T12:01:32;13.60;63.00
43338;DHT22;28933;52.492;13.434;2023-04-25T12:04:09;13.70;62.80
43338;DHT22;28933;52.492;13.434;2023-04-25T12:06:39;13.70;62.80
43338;DHT22;28933;52.492;13.434;2023-04-25T12:09:08;13.70;61.70
43338;DHT22;28933;52.492;13.434;2023-04-25T12:11:47;13.80;62.10
43338;DHT22;28933;52.492;13.434;2023-04-25T12:14:22;13.80;62.50
43338;DHT22;28933;52.492;13.434;2023-04-25T12:16:54;13.80;62.50
43338;DHT22;28933;52.492;13.434;2023-04-25T12:19:20;13.90;62.60
43338;DHT22;28933;52.492;13.434;2023-04-25T12:21:46;13.90;62.90
43338;DHT22;28933;52.492;13.434;2023-04-25T12:24:17;14.00;63.00
43338;DHT22;28933;52.492;13.434;2023-04-25T12:26:57;14.00;62.90
43338;DHT22;28933;52.492;13.434;2023-04-25T12:29:25;14.10;62.50
43338;DHT22;28933;52.492;13.434;2023-04-25T12:31:52;14.00;62.00
43338;DHT22;28933;52.492;13.434;2023-04-25T12:34:19;14.00;61.60
43338;DHT22;28933;52.492;13.434;2023-04-25T12:36:45;14.00;60.70
43338;DHT22;28933;52.492;13.434;2023-04-25T12:39:15;14.00;60.00
43338;DHT22;28933;52.492;13.434;2023-04-25T12:41:41;14.10;60.10
43338;DHT22;28933;52.492;13.434;2023-04-25T12:44:07;14.00;59.60
43338;DHT22;28933;52.492;13.434;2023-04-25T12:46:32;14.10;60.50
43338;DHT22;28933;52.492;13.434;2023-04-25T12:48:58;14.10;59.70
43338;DHT22;28933;52.492;13.434;2023-04-25T12:51:24;14.10;60.20
43338;DHT22;28933;52.492;13.434;2023-04-25T12:53:51;14.20;59.40
43338;DHT22;28933;52.492;13.434;2023-04-25T12:56:17;14.00;59.40
43338;DHT22;28933;52.492;13.434;2023-04-25T12:58:43;14.00;60.30
43338;DHT22;28933;52.492;13.434;2023-04-25T13:01:09;14.00;60.40
43338;DHT22;28933;52.492;13.434;2023-04-25T13:03:35;14.00;60.20
43338;DHT22;28933;52.492;13.434;2023-04-25T13:06:01;13.90;59.90
43338;DHT22;28933;52.492;13.434;2023-04-25T13:08:26;13.90;60.30
43338;DHT22;28933;52.492;13.434;2023-04-25T13:10:52;14.00;60.40
43338;DHT22;28933;52.492;13.434;2023-04-25T13:13:17;14.10;60.40
43338;DHT22;28933;52.492;13.434;2023-04-25T13:15:44;14.20;60.70
43338;DHT22;28933;52.492;13.434;2023-04-25T13:18:10;14.20;61.60
43338;DHT22;28933;52.492;13.434;2023-04-25T13:20:35;14.40;61.20
43338;DHT22;28933;52.492;13.434;2023-04-25T13:23:01;14.40;61.00
43338;DHT22;28933;52.492;13.434;2023-04-25T13:25:26;14.60;60.90
43338;DHT22;28933;52.492;13.434;2023-04-25T13:27:52;14.70;61.10
43338;DHT22;28933;52.492;13.434;2023-04-25T13:30:18;14.90;60.70
43338;DHT22;28933;52.492;13.434;2023-04-25T13:32:43;15.00;60.00
43338;DHT22;28933;52.492;13.434;2023-04-25T13:35:13;15.00;60.90
43338;DHT22;28933;52.492;13.434;2023-04-25T13:37:39;15.00;62.60
43338;DHT22;28933;52.492;13.434;2023-04-25T13:40:07;15.10;61.60
43338;DHT22;28933;52.492;13.434;2023-04-25T13:42:35;15.10;61.70
43338;DHT22;28933;52.492;13.434;2023-04-25T13:45:01;15.10;61.00
43338;DHT22;28933;52.492;13.434;2023-04-25T13:47:28;15.10;59.90
43338;DHT22;28933;52.492;13.434;2023-04-25T13:49:59;15.00;60.00
43338;DHT22;28933;52.492;13.434;2023-04-25T13:52:29;14.90;61.10
43338;DHT22;28933;52.492;13.434;2023-04-25T13:54:55;14.90;60.70
43338;DHT22;28933;52.492;13.434;2023-04-25T13:57:21;15.00;60.70
43338;DHT22;28933;52.492;13.434;2023-04-25T13:59:47;15.00;60.70
43338;DHT22;28933;52.492;13.434;2023-04-25T14:02:13;15.10;60.50
43338;DHT22;28933;52.492;13.434;2023-04-25T14:04:38;15.10;60.40
43338;DHT22;28933;52.492;13.434;2023-04-25T14:07:04;15.10;60.50
43338;DHT22;28933;52.492;13.434;2023-04-25T14:09:30;15.10;60.60
43338;DHT22;28933;52.492;13.434;2023-04-25T14:11:56;14.90;60.10
43338;DHT22;28933;52.492;13.434;2023-04-25T14:14:22;14.90;60.30
43338;DHT22;28933;52.492;13.434;2023-04-25T14:16:49;14.90;60.30
43338;DHT22;28933;52.492;13.434;2023-04-25T14:19:17;14.80;60.50
43338;DHT22;28933;52.492;13.434;2023-04-25T14:21:43;14.70;60.40
43338;DHT22;28933;52.492;13.434;2023-04-25T14:24:10;14.70;60.50
43338;DHT22;28933;52.492;13.434;2023-04-25T14:26:39;14.60;60.20
43338;DHT22;28933;52.492;13.434;2023-04-25T14:29:05;14.50;59.70
43338;DHT22;28933;52.492;13.434;2023-04-25T14:31:32;14.40;59.90
43338;DHT22;28933;52.492;13.434;2023-04-25T14:33:58;14.30;59.40
43338;DHT22;28933;52.492;13.434;2023-04-25T14:36:23;14.20;59.70
43338;DHT22;28933;52.492;13.434;2023-04-25T14:38:49;14.30;60.00
43338;DHT22;28933;52.492;13.434;2023-04-25T14:41:15;14.20;59.80
43338;DHT22;28933;52.492;13.434;2023-04-25T14:43:41;14.20;60.00
43338;DHT22;28933;52.492;13.434;2023-04-25T14:46:07;14.20;60.70
43338;DHT22;28933;52.492;13.434;2023-04-25T14:48:33;14.30;61.00
43338;DHT22;28933;52.492;13.434;2023-04-25T14:50:59;14.40;60.20
43338;DHT22;28933;52.492;13.434;2023-04-25T14:53:26;14.50;60.60
43338;DHT22;28933;52.492;13.434;2023-04-25T14:55:52;14.70;60.70
43338;DHT22;28933;52.492;13.434;2023-04-25T14:58:18;14.70;60.50
43338;DHT22;28933;52.492;13.434;2023-04-25T15:00:44;14.70;60.70
43338;DHT22;28933;52.492;13.434;2023-04-25T15:03:10;14.60;60.50
43338;DHT22;28933;52.492;13.434;2023-04-25T15:05:38;14.50;60.80
43338;DHT22;28933;52.492;13.434;2023-04-25T15:08:04;14.40;60.80
43338;DHT22;28933;52.492;13.434;2023-04-25T15:10:30;14.30;60.80
43338;DHT22;28933;52.492;13.434;2023-04-25T15:12:56;14.20;60.90
43338;DHT22;28933;52.492;13.434;2023-04-25T15:15:22;14.00;61.10
43338;DHT22;28933;52.492;13.434;2023-04-25T15:17:49;13.90;61.20
43338;DHT22;28933;52.492;13.434;2023-04-25T15:20:15;13.70;61.50
43338;DHT22;28933;52.492;13.434;2023-04-25T15:22:42;13.60;61.70
43338;DHT22;28933;52.492;13.434;2023-04-25T15:25:09;13.60;62.10
43338;DHT22;28933;52.492;13.434;2023-04-25T15:27:35;13.60;62.20
43338;DHT22;28933;52.492;13.434;2023-04-25T15:30:06;13.60;62.20
43338;DHT22;28933;52.492;13.434;2023-04-25T15:32:33;13.60;62.40
43338;DHT22;28933;52.492;13.434;2023-04-25T15:35:05;13.60;62.30
43338;DHT22;28933;52.492;13.434;2023-04-25T15:37:31;13.70;62.40
43338;DHT22;28933;52.492;13.434;2023-04-25T15:40:15;13.80;62.10
43338;DHT22;28933;52.492;13.434;2023-04-25T15:45:10;13.80;61.40
43338;DHT22;28933;52.492;13.434;2023-04-25T15:47:37;13.80;61.10
43338;DHT22;28933;52.492;13.434;2023-04-25T15:50:08;13.80;61.20
43338;DHT22;28933;52.492;13.434;2023-04-25T15:52:34;13.70;61.10
43338;DHT22;28933;52.492;13.434;2023-04-25T15:55:01;13.70;61.10
43338;DHT22;28933;52.492;13.434;2023-04-25T15:57:27;13.60;61.20
43338;DHT22;28933;52.492;13.434;2023-04-25T15:59:53;13.60;62.00
43338;DHT22;28933;52.492;13.434;2023-04-25T16:02:19;13.60;61.60
43338;DHT22;28933;52.492;13.434;2023-04-25T16:04:45;13.70;61.90
43338;DHT22;28933;52.492;13.434;2023-04-25T16:07:12;13.60;61.70
43338;DHT22;28933;52.492;13.434;2023-04-25T16:09:37;13.60;61.70
43338;DHT22;28933;52.492;13.434;2023-04-25T16:12:03;13.50;61.80
43338;DHT22;28933;52.492;13.434;2023-04-25T16:14:29;13.40;61.90
43338;DHT22;28933;52.492;13.434;2023-04-25T16:16:55;13.30;61.90
43338;DHT22;28933;52.492;13.434;2023-04-25T16:19:21;13.30;62.10
43338;DHT22;28933;52.492;13.434;2023-04-25T16:21:47;13.20;61.70
43338;DHT22;28933;52.492;13.434;2023-04-25T16:24:13;13.20;61.90
43338;DHT22;28933;52.492;13.434;2023-04-25T16:26:39;13.10;61.10
43338;DHT22;28933;52.492;13.434;2023-04-25T16:29:06;13.00;60.90
43338;DHT22;28933;52.492;13.434;2023-04-25T16:31:33;12.90;60.80